sensor_id;sensor_type;location;lat;lon;timestamp;P1;durP1;ratioP1;P2;durP2;ratioP2
21905;SDS011;11117;48.644;9.006;2022-10-31T00:00:48;12.57;;;4.70;;
21905;SDS011;11117;48.644;9.006;2022-10-31T00:03:16;15.73;;;5.60;;
21905;SDS011;11117;48.644;9.006;2022-10-31T00:05:46;15.53;;;5.40;;
21905;SDS011;11117;48.644;9.006;2022-10-31T00:08:13;12.03;;;5.10;;
21905;SDS011;11117;48.644;9.006;2022-10-31T00:10:39;12.23;;;5.60;;
21905;SDS011;11117;48.644;9.006;2022-10-31T00:13:06;14.97;;;6.63;;
21905;SDS011;11117;48.644;9.006;2022-10-31T00:15:33;13.43;;;6.37;;
21905;SDS011;11117;48.644;9.006;2022-10-31T00:18:00;11.60;;;5.67;;
21905;SDS011;11117;48.644;9.006;2022-10-31T00:20:26;12.13;;;6.17;;
21905;SDS011;11117;48.644;9.006;2022-10-31T00:22:52;14.03;;;6.20;;
21905;SDS011;11117;48.644;9.006;2022-10-31T00:25:17;14.00;;;5.80;;
21905;SDS011;11117;48.644;9.006;2022-10-31T00:27:43;14.33;;;6.67;;
21905;SDS011;11117;48.644;9.006;2022-10-31T00:30:09;8.43;;;5.97;;
21905;SDS011;11117;48.644;9.006;2022-10-31T00:32:35;13.77;;;5.97;;
21905;SDS011;11117;48.644;9.006;2022-10-31T00:35:00;11.00;;;6.07;;
21905;SDS011;11117;48.644;9.006;2022-10-31T00:37:26;11.87;;;5.43;;
21905;SDS011;11117;48.644;9.006;2022-10-31T00:39:52;14.80;;;5.80;;
21905;SDS011;11117;48.644;9.006;2022-10-31T00:42:18;9.97;;;5.90;;
21905;SDS011;11117;48.644;9.006;2022-10-31T00:44:44;13.20;;;5.80;;
21905;SDS011;11117;48.644;9.006;2022-10-31T00:47:10;13.07;;;6.47;;
21905;SDS011;11117;48.644;9.006;2022-10-31T00:49:35;14.20;;;6.50;;
21905;SDS011;11117;48.644;9.006;2022-10-31T00:52:01;17.50;;;7.27;;
21905;SDS011;11117;48.644;9.006;2022-10-31T00:54:27;14.00;;;6.50;;
21905;SDS011;11117;48.644;9.006;2022-10-31T00:56:52;15.17;;;6.70;;
21905;SDS011;11117;48.644;9.006;2022-10-31T00:59:18;18.67;;;6.40;;
21905;SDS011;11117;48.644;9.006;2022-10-31T01:01:44;14.67;;;5.87;;
21905;SDS011;11117;48.644;9.006;2022-10-31T01:04:09;13.77;;;6.33;;
21905;SDS011;11117;48.644;9.006;2022-10-31T01:06:35;23.07;;;6.80;;
21905;SDS011;11117;48.644;9.006;2022-10-31T01:09:00;15.27;;;7.00;;
21905;SDS011;11117;48.644;9.006;2022-10-31T01:11:26;18.50;;;6.80;;
21905;SDS011;11117;48.644;9.006;2022-10-31T01:13:52;14.90;;;7.80;;
21905;SDS011;11117;48.644;9.006;2022-10-31T01:16:20;14.33;;;7.83;;
21905;SDS011;11117;48.644;9.006;2022-10-31T01:18:47;11.77;;;6.70;;
21905;SDS011;11117;48.644;9.006;2022-10-31T01:21:14;11.97;;;6.50;;
21905;SDS011;11117;48.644;9.006;2022-10-31T01:23:41;21.87;;;9.67;;
21905;SDS011;11117;48.644;9.006;2022-10-31T01:28:35;15.80;;;6.87;;
21905;SDS011;11117;48.644;9.006;2022-10-31T01:31:03;12.80;;;6.63;;
21905;SDS011;11117;48.644;9.006;2022-10-31T01:33:31;16.33;;;6.90;;
21905;SDS011;11117;48.644;9.006;2022-10-31T01:35:56;14.07;;;6.53;;
21905;SDS011;11117;48.644;9.006;2022-10-31T01:38:22;16.33;;;6.77;;
21905;SDS011;11117;48.644;9.006;2022-10-31T01:40:48;16.90;;;6.13;;
21905;SDS011;11117;48.644;9.006;2022-10-31T01:43:14;10.97;;;5.80;;
21905;SDS011;11117;48.644;9.006;2022-10-31T01:45:40;15.20;;;6.60;;
21905;SDS011;11117;48.644;9.006;2022-10-31T01:48:13;18.77;;;6.47;;
21905;SDS011;11117;48.644;9.006;2022-10-31T01:50:41;12.30;;;6.53;;
21905;SDS011;11117;48.644;9.006;2022-10-31T01:53:09;14.50;;;6.73;;
21905;SDS011;11117;48.644;9.006;2022-10-31T01:55:40;14.50;;;6.87;;
21905;SDS011;11117;48.644;9.006;2022-10-31T01:58:12;13.93;;;6.90;;
21905;SDS011;11117;48.644;9.006;2022-10-31T02:00:45;14.40;;;6.37;;
21905;SDS011;11117;48.644;9.006;2022-10-31T02:03:13;18.07;;;6.73;;
21905;SDS011;11117;48.644;9.006;2022-10-31T02:05:39;13.47;;;6.47;;
21905;SDS011;11117;48.644;9.006;2022-10-31T02:08:16;18.40;;;6.60;;
21905;SDS011;11117;48.644;9.006;2022-10-31T02:10:47;13.37;;;6.83;;
21905;SDS011;11117;48.644;9.006;2022-10-31T02:13:13;20.03;;;7.40;;
21905;SDS011;11117;48.644;9.006;2022-10-31T02:15:39;17.93;;;7.27;;
21905;SDS011;11117;48.644;9.006;2022-10-31T02:18:05;11.60;;;6.83;;
21905;SDS011;11117;48.644;9.006;2022-10-31T02:20:33;13.40;;;6.77;;
21905;SDS011;11117;48.644;9.006;2022-10-31T02:23:31;17.30;;;6.67;;
21905;SDS011;11117;48.644;9.006;2022-10-31T02:26:27;15.17;;;6.70;;
21905;SDS011;11117;48.644;9.006;2022-10-31T02:32:27;19.30;;;6.53;;
21905;SDS011;11117;48.644;9.006;2022-10-31T02:35:39;16.67;;;6.90;;
21905;SDS011;11117;48.644;9.006;2022-10-31T02:43:51;14.73;;;6.60;;
21905;SDS011;11117;48.644;9.006;2022-10-31T02:46:32;19.60;;;6.77;;
21905;SDS011;11117;48.644;9.006;2022-10-31T02:49:07;12.03;;;6.70;;
21905;SDS011;11117;48.644;9.006;2022-10-31T02:51:41;16.03;;;7.17;;
21905;SDS011;11117;48.644;9.006;2022-10-31T02:54:22;13.90;;;7.33;;
21905;SDS011;11117;48.644;9.006;2022-10-31T02:56:51;19.70;;;10.47;;
21905;SDS011;11117;48.644;9.006;2022-10-31T02:59:28;21.27;;;8.77;;
21905;SDS011;11117;48.644;9.006;2022-10-31T03:02:05;16.60;;;8.23;;
21905;SDS011;11117;48.644;9.006;2022-10-31T03:04:59;26.87;;;7.20;;
21905;SDS011;11117;48.644;9.006;2022-10-31T03:10:45;19.77;;;8.83;;
21905;SDS011;11117;48.644;9.006;2022-10-31T03:13:39;17.03;;;7.53;;
21905;SDS011;11117;48.644;9.006;2022-10-31T03:18:49;15.87;;;8.73;;
21905;SDS011;11117;48.644;9.006;2022-10-31T03:21:22;22.30;;;8.53;;
21905;SDS011;11117;48.644;9.006;2022-10-31T03:23:55;20.33;;;7.93;;
21905;SDS011;11117;48.644;9.006;2022-10-31T03:26:21;15.53;;;8.53;;
21905;SDS011;11117;48.644;9.006;2022-10-31T03:31:17;16.10;;;8.43;;
21905;SDS011;11117;48.644;9.006;2022-10-31T03:33:45;17.63;;;8.37;;
21905;SDS011;11117;48.644;9.006;2022-10-31T03:36:13;20.03;;;9.10;;
21905;SDS011;11117;48.644;9.006;2022-10-31T03:38:40;21.93;;;8.70;;
21905;SDS011;11117;48.644;9.006;2022-10-31T03:41:07;18.27;;;8.47;;
21905;SDS011;11117;48.644;9.006;2022-10-31T03:43:39;14.53;;;8.70;;
21905;SDS011;11117;48.644;9.006;2022-10-31T03:46:11;19.63;;;8.70;;
21905;SDS011;11117;48.644;9.006;2022-10-31T03:48:37;17.63;;;9.30;;
21905;SDS011;11117;48.644;9.006;2022-10-31T03:53:33;20.20;;;8.63;;
21905;SDS011;11117;48.644;9.006;2022-10-31T03:58:49;22.50;;;8.53;;
21905;SDS011;11117;48.644;9.006;2022-10-31T04:01:29;22.13;;;9.10;;
21905;SDS011;11117;48.644;9.006;2022-10-31T04:03:57;22.23;;;9.20;;
21905;SDS011;11117;48.644;9.006;2022-10-31T04:06:24;17.60;;;9.07;;
21905;SDS011;11117;48.644;9.006;2022-10-31T04:08:52;16.83;;;8.47;;
21905;SDS011;11117;48.644;9.006;2022-10-31T04:11:23;17.83;;;8.87;;
21905;SDS011;11117;48.644;9.006;2022-10-31T04:13:52;14.77;;;8.20;;
21905;SDS011;11117;48.644;9.006;2022-10-31T04:16:19;15.10;;;8.03;;
21905;SDS011;11117;48.644;9.006;2022-10-31T04:18:47;14.50;;;6.83;;
21905;SDS011;11117;48.644;9.006;2022-10-31T04:21:13;16.83;;;6.90;;
21905;SDS011;11117;48.644;9.006;2022-10-31T04:23:38;13.17;;;6.80;;
21905;SDS011;11117;48.644;9.006;2022-10-31T04:26:04;13.17;;;7.70;;
21905;SDS011;11117;48.644;9.006;2022-10-31T04:28:29;18.80;;;8.63;;
21905;SDS011;11117;48.644;9.006;2022-10-31T04:30:55;21.37;;;8.93;;
21905;SDS011;11117;48.644;9.006;2022-10-31T04:33:21;19.20;;;9.40;;
21905;SDS011;11117;48.644;9.006;2022-10-31T04:35:46;19.93;;;9.17;;
21905;SDS011;11117;48.644;9.006;2022-10-31T04:38:12;17.07;;;9.50;;
21905;SDS011;11117;48.644;9.006;2022-10-31T04:40:37;26.30;;;10.33;;
21905;SDS011;11117;48.644;9.006;2022-10-31T04:43:03;25.20;;;10.67;;
21905;SDS011;11117;48.644;9.006;2022-10-31T04:45:28;20.80;;;9.63;;
21905;SDS011;11117;48.644;9.006;2022-10-31T04:47:54;25.57;;;8.93;;
21905;SDS011;11117;48.644;9.006;2022-10-31T04:50:19;13.53;;;8.03;;
21905;SDS011;11117;48.644;9.006;2022-10-31T04:52:45;15.03;;;7.37;;
21905;SDS011;11117;48.644;9.006;2022-10-31T04:55:11;17.47;;;7.50;;
21905;SDS011;11117;48.644;9.006;2022-10-31T04:57:41;16.87;;;8.47;;
21905;SDS011;11117;48.644;9.006;2022-10-31T05:00:09;19.07;;;8.43;;
21905;SDS011;11117;48.644;9.006;2022-10-31T05:02:42;16.70;;;9.07;;
21905;SDS011;11117;48.644;9.006;2022-10-31T05:05:10;13.83;;;7.63;;
21905;SDS011;11117;48.644;9.006;2022-10-31T05:07:42;17.63;;;7.57;;
21905;SDS011;11117;48.644;9.006;2022-10-31T05:10:14;12.47;;;7.57;;
21905;SDS011;11117;48.644;9.006;2022-10-31T05:12:47;16.13;;;8.07;;
21905;SDS011;11117;48.644;9.006;2022-10-31T05:15:18;23.33;;;10.23;;
21905;SDS011;11117;48.644;9.006;2022-10-31T05:17:44;21.63;;;12.43;;
21905;SDS011;11117;48.644;9.006;2022-10-31T05:20:10;24.40;;;15.70;;
21905;SDS011;11117;48.644;9.006;2022-10-31T05:22:37;18.97;;;10.63;;
21905;SDS011;11117;48.644;9.006;2022-10-31T05:25:06;19.90;;;10.90;;
21905;SDS011;11117;48.644;9.006;2022-10-31T05:27:32;18.60;;;9.50;;
21905;SDS011;11117;48.644;9.006;2022-10-31T05:29:57;17.83;;;10.07;;
21905;SDS011;11117;48.644;9.006;2022-10-31T05:32:23;17.97;;;8.80;;
21905;SDS011;11117;48.644;9.006;2022-10-31T05:34:48;17.47;;;9.27;;
21905;SDS011;11117;48.644;9.006;2022-10-31T05:37:14;17.70;;;7.97;;
21905;SDS011;11117;48.644;9.006;2022-10-31T05:39:40;19.40;;;7.73;;
21905;SDS011;11117;48.644;9.006;2022-10-31T05:42:05;19.33;;;7.93;;
21905;SDS011;11117;48.644;9.006;2022-10-31T05:44:31;17.53;;;7.60;;
21905;SDS011;11117;48.644;9.006;2022-10-31T05:46:56;14.87;;;7.57;;
21905;SDS011;11117;48.644;9.006;2022-10-31T05:49:22;16.30;;;6.57;;
21905;SDS011;11117;48.644;9.006;2022-10-31T05:51:47;10.63;;;6.30;;
21905;SDS011;11117;48.644;9.006;2022-10-31T05:54:13;15.93;;;6.90;;
21905;SDS011;11117;48.644;9.006;2022-10-31T05:56:38;14.67;;;6.93;;
21905;SDS011;11117;48.644;9.006;2022-10-31T05:59:04;13.53;;;6.63;;
21905;SDS011;11117;48.644;9.006;2022-10-31T06:01:29;16.30;;;7.33;;
21905;SDS011;11117;48.644;9.006;2022-10-31T06:03:55;14.93;;;7.43;;
21905;SDS011;11117;48.644;9.006;2022-10-31T06:06:20;18.40;;;7.83;;
21905;SDS011;11117;48.644;9.006;2022-10-31T06:08:46;16.70;;;7.20;;
21905;SDS011;11117;48.644;9.006;2022-10-31T06:11:11;15.83;;;7.13;;
21905;SDS011;11117;48.644;9.006;2022-10-31T06:13:37;19.43;;;8.00;;
21905;SDS011;11117;48.644;9.006;2022-10-31T06:16:02;14.90;;;8.23;;
21905;SDS011;11117;48.644;9.006;2022-10-31T06:18:28;15.77;;;8.33;;
21905;SDS011;11117;48.644;9.006;2022-10-31T06:20:54;16.57;;;7.57;;
21905;SDS011;11117;48.644;9.006;2022-10-31T06:23:19;14.53;;;6.97;;
21905;SDS011;11117;48.644;9.006;2022-10-31T06:25:49;15.07;;;7.63;;
21905;SDS011;11117;48.644;9.006;2022-10-31T06:28:15;15.10;;;7.40;;
21905;SDS011;11117;48.644;9.006;2022-10-31T06:30:40;14.93;;;7.10;;
21905;SDS011;11117;48.644;9.006;2022-10-31T06:33:06;16.90;;;6.33;;
21905;SDS011;11117;48.644;9.006;2022-10-31T06:35:32;12.50;;;6.20;;
21905;SDS011;11117;48.644;9.006;2022-10-31T06:37:58;16.83;;;6.53;;
21905;SDS011;11117;48.644;9.006;2022-10-31T06:40:23;15.57;;;6.57;;
21905;SDS011;11117;48.644;9.006;2022-10-31T06:42:56;16.93;;;6.50;;
21905;SDS011;11117;48.644;9.006;2022-10-31T06:45:22;10.77;;;6.57;;
21905;SDS011;11117;48.644;9.006;2022-10-31T06:47:55;20.13;;;7.00;;
21905;SDS011;11117;48.644;9.006;2022-10-31T06:50:21;15.87;;;7.60;;
21905;SDS011;11117;48.644;9.006;2022-10-31T06:52:51;15.77;;;7.60;;
21905;SDS011;11117;48.644;9.006;2022-10-31T06:55:17;14.77;;;7.40;;
21905;SDS011;11117;48.644;9.006;2022-10-31T06:57:48;15.40;;;7.20;;
21905;SDS011;11117;48.644;9.006;2022-10-31T07:00:18;15.13;;;6.97;;
21905;SDS011;11117;48.644;9.006;2022-10-31T07:02:52;13.80;;;6.93;;
21905;SDS011;11117;48.644;9.006;2022-10-31T07:05:21;17.33;;;6.70;;
21905;SDS011;11117;48.644;9.006;2022-10-31T07:07:47;12.20;;;6.10;;
21905;SDS011;11117;48.644;9.006;2022-10-31T07:10:16;16.80;;;6.50;;
21905;SDS011;11117;48.644;9.006;2022-10-31T07:12:41;14.50;;;6.97;;
21905;SDS011;11117;48.644;9.006;2022-10-31T07:15:07;23.57;;;7.80;;
21905;SDS011;11117;48.644;9.006;2022-10-31T07:17:33;20.60;;;7.77;;
21905;SDS011;11117;48.644;9.006;2022-10-31T07:19:58;18.30;;;7.53;;
21905;SDS011;11117;48.644;9.006;2022-10-31T07:22:31;18.50;;;7.67;;
21905;SDS011;11117;48.644;9.006;2022-10-31T07:24:57;14.33;;;6.97;;
21905;SDS011;11117;48.644;9.006;2022-10-31T07:27:23;16.17;;;6.27;;
21905;SDS011;11117;48.644;9.006;2022-10-31T07:29:48;14.23;;;6.63;;
21905;SDS011;11117;48.644;9.006;2022-10-31T07:32:14;15.77;;;6.77;;
21905;SDS011;11117;48.644;9.006;2022-10-31T07:34:40;14.57;;;6.17;;
21905;SDS011;11117;48.644;9.006;2022-10-31T07:37:05;10.37;;;5.97;;
21905;SDS011;11117;48.644;9.006;2022-10-31T07:39:31;12.80;;;6.30;;
21905;SDS011;11117;48.644;9.006;2022-10-31T07:41:57;15.83;;;6.17;;
21905;SDS011;11117;48.644;9.006;2022-10-31T07:44:23;16.97;;;6.77;;
21905;SDS011;11117;48.644;9.006;2022-10-31T07:46:49;15.10;;;6.63;;
21905;SDS011;11117;48.644;9.006;2022-10-31T07:49:14;13.43;;;6.50;;
21905;SDS011;11117;48.644;9.006;2022-10-31T07:51:40;13.87;;;6.53;;
21905;SDS011;11117;48.644;9.006;2022-10-31T07:54:05;13.83;;;6.33;;
21905;SDS011;11117;48.644;9.006;2022-10-31T07:56:31;14.77;;;6.43;;
21905;SDS011;11117;48.644;9.006;2022-10-31T07:58:56;11.83;;;6.00;;
21905;SDS011;11117;48.644;9.006;2022-10-31T08:01:22;15.57;;;6.03;;
21905;SDS011;11117;48.644;9.006;2022-10-31T08:03:47;11.50;;;5.67;;
21905;SDS011;11117;48.644;9.006;2022-10-31T08:06:13;15.60;;;6.13;;
21905;SDS011;11117;48.644;9.006;2022-10-31T08:08:38;14.73;;;6.00;;
21905;SDS011;11117;48.644;9.006;2022-10-31T08:11:04;20.00;;;5.70;;
21905;SDS011;11117;48.644;9.006;2022-10-31T08:13:30;17.07;;;5.30;;
21905;SDS011;11117;48.644;9.006;2022-10-31T08:15:56;9.20;;;5.10;;
21905;SDS011;11117;48.644;9.006;2022-10-31T08:18:22;13.10;;;5.07;;
21905;SDS011;11117;48.644;9.006;2022-10-31T08:20:48;10.23;;;5.50;;
21905;SDS011;11117;48.644;9.006;2022-10-31T08:23:14;14.77;;;5.40;;
21905;SDS011;11117;48.644;9.006;2022-10-31T08:25:39;13.07;;;5.30;;
21905;SDS011;11117;48.644;9.006;2022-10-31T08:28:05;14.03;;;5.17;;
21905;SDS011;11117;48.644;9.006;2022-10-31T08:30:32;10.80;;;5.27;;
21905;SDS011;11117;48.644;9.006;2022-10-31T08:35:29;7.67;;;4.80;;
21905;SDS011;11117;48.644;9.006;2022-10-31T08:37:55;9.57;;;5.20;;
21905;SDS011;11117;48.644;9.006;2022-10-31T08:40:22;11.73;;;5.30;;
21905;SDS011;11117;48.644;9.006;2022-10-31T08:42:58;14.90;;;5.10;;
21905;SDS011;11117;48.644;9.006;2022-10-31T08:45:26;16.53;;;5.07;;
21905;SDS011;11117;48.644;9.006;2022-10-31T08:47:52;8.50;;;5.13;;
21905;SDS011;11117;48.644;9.006;2022-10-31T08:50:22;14.40;;;5.47;;
21905;SDS011;11117;48.644;9.006;2022-10-31T08:52:47;17.37;;;5.60;;
21905;SDS011;11117;48.644;9.006;2022-10-31T08:55:13;14.40;;;4.90;;
21905;SDS011;11117;48.644;9.006;2022-10-31T08:57:38;8.40;;;5.13;;
21905;SDS011;11117;48.644;9.006;2022-10-31T09:00:04;12.13;;;5.63;;
21905;SDS011;11117;48.644;9.006;2022-10-31T09:02:30;14.67;;;5.80;;
21905;SDS011;11117;48.644;9.006;2022-10-31T09:04:56;11.93;;;5.50;;
21905;SDS011;11117;48.644;9.006;2022-10-31T09:07:21;16.13;;;5.50;;
21905;SDS011;11117;48.644;9.006;2022-10-31T09:09:47;15.67;;;5.20;;
21905;SDS011;11117;48.644;9.006;2022-10-31T09:12:12;18.63;;;5.37;;
21905;SDS011;11117;48.644;9.006;2022-10-31T09:14:38;15.17;;;7.40;;
21905;SDS011;11117;48.644;9.006;2022-10-31T09:17:03;12.27;;;5.77;;
21905;SDS011;11117;48.644;9.006;2022-10-31T09:19:29;13.47;;;5.43;;
21905;SDS011;11117;48.644;9.006;2022-10-31T09:21:54;14.98;;;5.75;;
21905;SDS011;11117;48.644;9.006;2022-10-31T09:24:20;13.23;;;5.40;;
21905;SDS011;11117;48.644;9.006;2022-10-31T09:26:45;17.63;;;5.67;;
21905;SDS011;11117;48.644;9.006;2022-10-31T09:29:11;14.00;;;5.07;;
21905;SDS011;11117;48.644;9.006;2022-10-31T09:31:36;15.87;;;4.90;;
21905;SDS011;11117;48.644;9.006;2022-10-31T09:34:02;10.75;;;4.40;;
21905;SDS011;11117;48.644;9.006;2022-10-31T09:36:28;10.98;;;4.50;;
21905;SDS011;11117;48.644;9.006;2022-10-31T09:38:54;12.55;;;5.20;;
21905;SDS011;11117;48.644;9.006;2022-10-31T09:41:32;11.75;;;5.85;;
21905;SDS011;11117;48.644;9.006;2022-10-31T09:52:16;8.70;;;4.80;;
21905;SDS011;11117;48.644;9.006;2022-10-31T09:54:52;10.95;;;4.13;;
21905;SDS011;11117;48.644;9.006;2022-10-31T09:57:25;10.52;;;4.20;;
21905;SDS011;11117;48.644;9.006;2022-10-31T09:59:54;12.85;;;4.30;;
21905;SDS011;11117;48.644;9.006;2022-10-31T10:10:12;12.30;;;4.78;;
21905;SDS011;11117;48.644;9.006;2022-10-31T10:12:55;12.05;;;4.65;;
21905;SDS011;11117;48.644;9.006;2022-10-31T10:15:42;11.68;;;4.55;;
21905;SDS011;11117;48.644;9.006;2022-10-31T10:18:32;10.10;;;4.70;;
21905;SDS011;11117;48.644;9.006;2022-10-31T10:27:22;10.70;;;4.85;;
21905;SDS011;11117;48.644;9.006;2022-10-31T10:32:25;8.80;;;3.60;;
21905;SDS011;11117;48.644;9.006;2022-10-31T10:34:56;11.48;;;3.50;;
21905;SDS011;11117;48.644;9.006;2022-10-31T10:37:44;13.65;;;3.75;;
21905;SDS011;11117;48.644;9.006;2022-10-31T10:56:49;13.23;;;5.00;;
21905;SDS011;11117;48.644;9.006;2022-10-31T10:59:30;15.18;;;4.95;;
21905;SDS011;11117;48.644;9.006;2022-10-31T11:01:56;11.80;;;4.70;;
21905;SDS011;11117;48.644;9.006;2022-10-31T11:04:28;12.40;;;4.22;;
21905;SDS011;11117;48.644;9.006;2022-10-31T11:07:02;13.32;;;4.50;;
21905;SDS011;11117;48.644;9.006;2022-10-31T11:09:28;12.82;;;3.72;;
21905;SDS011;11117;48.644;9.006;2022-10-31T11:11:53;12.80;;;4.25;;
21905;SDS011;11117;48.644;9.006;2022-10-31T11:14:20;11.23;;;3.92;;
21905;SDS011;11117;48.644;9.006;2022-10-31T11:16:55;15.25;;;4.38;;
21905;SDS011;11117;48.644;9.006;2022-10-31T11:19:33;13.57;;;4.22;;
21905;SDS011;11117;48.644;9.006;2022-10-31T11:22:05;8.20;;;4.25;;
21905;SDS011;11117;48.644;9.006;2022-10-31T11:24:35;12.13;;;4.00;;
21905;SDS011;11117;48.644;9.006;2022-10-31T11:27:16;11.63;;;3.85;;
21905;SDS011;11117;48.644;9.006;2022-10-31T11:29:45;14.93;;;4.22;;
21905;SDS011;11117;48.644;9.006;2022-10-31T11:32:21;12.68;;;3.88;;
21905;SDS011;11117;48.644;9.006;2022-10-31T11:34:59;15.93;;;4.57;;
21905;SDS011;11117;48.644;9.006;2022-10-31T11:37:28;12.00;;;4.60;;
21905;SDS011;11117;48.644;9.006;2022-10-31T11:39:58;18.00;;;4.63;;
21905;SDS011;11117;48.644;9.006;2022-10-31T11:42:38;12.15;;;4.25;;
21905;SDS011;11117;48.644;9.006;2022-10-31T11:45:07;9.25;;;4.43;;
21905;SDS011;11117;48.644;9.006;2022-10-31T11:47:47;16.08;;;4.78;;
21905;SDS011;11117;48.644;9.006;2022-10-31T11:50:18;15.07;;;4.72;;
21905;SDS011;11117;48.644;9.006;2022-10-31T11:52:50;11.20;;;4.85;;
21905;SDS011;11117;48.644;9.006;2022-10-31T11:55:37;19.77;;;4.97;;
21905;SDS011;11117;48.644;9.006;2022-10-31T11:58:04;12.60;;;4.70;;
21905;SDS011;11117;48.644;9.006;2022-10-31T12:00:47;14.50;;;4.70;;
21905;SDS011;11117;48.644;9.006;2022-10-31T12:05:54;11.02;;;4.50;;
21905;SDS011;11117;48.644;9.006;2022-10-31T12:08:34;13.10;;;4.72;;
21905;SDS011;11117;48.644;9.006;2022-10-31T12:13:32;11.50;;;4.53;;
21905;SDS011;11117;48.644;9.006;2022-10-31T12:16:12;17.73;;;4.90;;
21905;SDS011;11117;48.644;9.006;2022-10-31T12:27:08;12.50;;;5.05;;
21905;SDS011;11117;48.644;9.006;2022-10-31T12:30:00;11.50;;;4.57;;
21905;SDS011;11117;48.644;9.006;2022-10-31T12:35:38;11.82;;;4.60;;
21905;SDS011;11117;48.644;9.006;2022-10-31T12:43:46;14.90;;;5.20;;
21905;SDS011;11117;48.644;9.006;2022-10-31T12:46:40;21.13;;;5.78;;
21905;SDS011;11117;48.644;9.006;2022-10-31T12:51:42;17.10;;;4.95;;
21905;SDS011;11117;48.644;9.006;2022-10-31T12:54:37;16.63;;;4.90;;
21905;SDS011;11117;48.644;9.006;2022-10-31T12:57:23;13.82;;;4.90;;
21905;SDS011;11117;48.644;9.006;2022-10-31T13:05:27;13.15;;;4.90;;
21905;SDS011;11117;48.644;9.006;2022-10-31T13:10:43;16.98;;;4.82;;
21905;SDS011;11117;48.644;9.006;2022-10-31T13:13:32;19.25;;;5.57;;
21905;SDS011;11117;48.644;9.006;2022-10-31T13:16:21;27.15;;;7.07;;
21905;SDS011;11117;48.644;9.006;2022-10-31T13:18:59;20.63;;;6.40;;
21905;SDS011;11117;48.644;9.006;2022-10-31T13:21:36;14.75;;;6.25;;
21905;SDS011;11117;48.644;9.006;2022-10-31T13:24:04;19.98;;;6.18;;
21905;SDS011;11117;48.644;9.006;2022-10-31T13:26:47;16.02;;;6.20;;
21905;SDS011;11117;48.644;9.006;2022-10-31T13:29:32;11.63;;;4.28;;
21905;SDS011;11117;48.644;9.006;2022-10-31T13:32:04;17.83;;;4.20;;
21905;SDS011;11117;48.644;9.006;2022-10-31T13:34:34;11.10;;;3.78;;
21905;SDS011;11117;48.644;9.006;2022-10-31T13:37:14;14.85;;;4.40;;
21905;SDS011;11117;48.644;9.006;2022-10-31T13:45:27;12.50;;;4.32;;
21905;SDS011;11117;48.644;9.006;2022-10-31T13:47:56;13.10;;;4.47;;
21905;SDS011;11117;48.644;9.006;2022-10-31T13:50:32;12.05;;;4.80;;
21905;SDS011;11117;48.644;9.006;2022-10-31T13:53:14;15.88;;;6.57;;
21905;SDS011;11117;48.644;9.006;2022-10-31T13:55:46;14.52;;;5.20;;
21905;SDS011;11117;48.644;9.006;2022-10-31T13:58:28;13.95;;;4.30;;
21905;SDS011;11117;48.644;9.006;2022-10-31T14:03:40;16.00;;;5.20;;
21905;SDS011;11117;48.644;9.006;2022-10-31T14:06:07;14.40;;;4.82;;
21905;SDS011;11117;48.644;9.006;2022-10-31T14:08:35;14.77;;;5.05;;
21905;SDS011;11117;48.644;9.006;2022-10-31T14:11:04;12.82;;;4.63;;
21905;SDS011;11117;48.644;9.006;2022-10-31T14:13:34;13.48;;;3.97;;
21905;SDS011;11117;48.644;9.006;2022-10-31T14:16:06;11.93;;;4.15;;
21905;SDS011;11117;48.644;9.006;2022-10-31T14:18:43;13.02;;;4.63;;
21905;SDS011;11117;48.644;9.006;2022-10-31T14:23:47;14.38;;;4.55;;
21905;SDS011;11117;48.644;9.006;2022-10-31T14:28:48;15.00;;;4.50;;
21905;SDS011;11117;48.644;9.006;2022-10-31T14:31:27;9.68;;;4.43;;
21905;SDS011;11117;48.644;9.006;2022-10-31T14:34:00;13.45;;;5.20;;
21905;SDS011;11117;48.644;9.006;2022-10-31T14:45:00;11.48;;;5.43;;
21905;SDS011;11117;48.644;9.006;2022-10-31T14:47:54;11.70;;;4.95;;
21905;SDS011;11117;48.644;9.006;2022-10-31T14:50:41;16.27;;;4.80;;
21905;SDS011;11117;48.644;9.006;2022-10-31T14:53:11;18.05;;;5.40;;
21905;SDS011;11117;48.644;9.006;2022-10-31T14:55:46;22.27;;;10.27;;
21905;SDS011;11117;48.644;9.006;2022-10-31T14:58:16;16.35;;;5.18;;
21905;SDS011;11117;48.644;9.006;2022-10-31T15:00:45;14.13;;;4.60;;
21905;SDS011;11117;48.644;9.006;2022-10-31T15:03:12;12.10;;;4.50;;
21905;SDS011;11117;48.644;9.006;2022-10-31T15:05:55;14.45;;;4.38;;
21905;SDS011;11117;48.644;9.006;2022-10-31T15:08:29;14.00;;;4.60;;
21905;SDS011;11117;48.644;9.006;2022-10-31T15:10:56;12.25;;;4.78;;
21905;SDS011;11117;48.644;9.006;2022-10-31T15:13:21;24.23;;;13.75;;
21905;SDS011;11117;48.644;9.006;2022-10-31T15:15:48;47.15;;;29.92;;
21905;SDS011;11117;48.644;9.006;2022-10-31T15:18:16;34.85;;;19.50;;
21905;SDS011;11117;48.644;9.006;2022-10-31T15:20:43;16.08;;;5.50;;
21905;SDS011;11117;48.644;9.006;2022-10-31T15:23:11;18.83;;;6.53;;
21905;SDS011;11117;48.644;9.006;2022-10-31T15:25:41;11.93;;;6.30;;
21905;SDS011;11117;48.644;9.006;2022-10-31T15:28:14;19.38;;;7.05;;
21905;SDS011;11117;48.644;9.006;2022-10-31T15:30:49;14.85;;;6.00;;
21905;SDS011;11117;48.644;9.006;2022-10-31T15:33:20;13.82;;;5.90;;
21905;SDS011;11117;48.644;9.006;2022-10-31T15:35:54;12.85;;;5.55;;
21905;SDS011;11117;48.644;9.006;2022-10-31T15:38:22;16.52;;;6.25;;
21905;SDS011;11117;48.644;9.006;2022-10-31T15:40:56;16.27;;;6.47;;
21905;SDS011;11117;48.644;9.006;2022-10-31T15:43:32;13.18;;;6.20;;
21905;SDS011;11117;48.644;9.006;2022-10-31T15:46:01;11.93;;;5.85;;
21905;SDS011;11117;48.644;9.006;2022-10-31T15:48:27;21.67;;;6.28;;
21905;SDS011;11117;48.644;9.006;2022-10-31T15:50:56;13.55;;;7.10;;
21905;SDS011;11117;48.644;9.006;2022-10-31T15:56:07;15.13;;;5.55;;
21905;SDS011;11117;48.644;9.006;2022-10-31T15:58:41;24.13;;;10.90;;
21905;SDS011;11117;48.644;9.006;2022-10-31T16:01:21;51.63;;;28.52;;
21905;SDS011;11117;48.644;9.006;2022-10-31T16:04:03;57.25;;;31.20;;
21905;SDS011;11117;48.644;9.006;2022-10-31T16:06:34;25.58;;;11.43;;
21905;SDS011;11117;48.644;9.006;2022-10-31T16:09:00;25.05;;;13.00;;
21905;SDS011;11117;48.644;9.006;2022-10-31T16:11:36;20.83;;;10.77;;
21905;SDS011;11117;48.644;9.006;2022-10-31T16:16:52;17.50;;;7.82;;
21905;SDS011;11117;48.644;9.006;2022-10-31T16:19:21;21.60;;;12.20;;
21905;SDS011;11117;48.644;9.006;2022-10-31T16:22:04;24.20;;;14.35;;
21905;SDS011;11117;48.644;9.006;2022-10-31T16:24:46;23.13;;;10.75;;
21905;SDS011;11117;48.644;9.006;2022-10-31T16:27:20;32.33;;;12.13;;
21905;SDS011;11117;48.644;9.006;2022-10-31T16:29:50;75.78;;;21.75;;
21905;SDS011;11117;48.644;9.006;2022-10-31T16:32:29;38.95;;;14.68;;
21905;SDS011;11117;48.644;9.006;2022-10-31T16:37:27;31.65;;;12.70;;
21905;SDS011;11117;48.644;9.006;2022-10-31T16:39:53;24.77;;;11.20;;
21905;SDS011;11117;48.644;9.006;2022-10-31T16:42:19;20.40;;;10.25;;
21905;SDS011;11117;48.644;9.006;2022-10-31T16:44:44;20.83;;;9.38;;
21905;SDS011;11117;48.644;9.006;2022-10-31T16:47:13;21.98;;;9.20;;
21905;SDS011;11117;48.644;9.006;2022-10-31T16:49:40;16.30;;;8.57;;
21905;SDS011;11117;48.644;9.006;2022-10-31T16:52:07;17.35;;;7.53;;
21905;SDS011;11117;48.644;9.006;2022-10-31T16:54:32;20.85;;;7.38;;
21905;SDS011;11117;48.644;9.006;2022-10-31T16:56:58;22.15;;;7.50;;
21905;SDS011;11117;48.644;9.006;2022-10-31T16:59:24;19.10;;;7.40;;
21905;SDS011;11117;48.644;9.006;2022-10-31T17:01:50;15.05;;;7.32;;